Time;durP1;ratioP1;P1;durP2;ratioP2;P2;SDS_P1;SDS_P2;PMS_P1;PMS_P2;Temp;Humidity;BMP_temperature;BMP_pressure;BME280_temperature;BME280_humidity;BME280_pressure;Samples;Min_cycle;Max_cycle;Signal;HPM_P1;HPM_P2
2023/10/12 00:00:42;;;;;;;1.67;1.42;;;21.10;70.50;21.30;100099.00;;;;5002968;27;93714;-67
2023/10/12 00:03:09;;;;;;;2.28;0.82;;;21.10;70.60;21.30;100108.00;;;;4990740;27;93038;-66
2023/10/12 00:05:34;;;;;;;3.15;1.25;;;21.10;70.70;21.20;100102.00;;;;5005816;27;92917;-67
2023/10/12 00:08:10;;;;;;;1.55;1.20;;;21.10;70.70;21.20;100100.00;;;;5000866;27;122121;-66
2023/10/12 00:10:44;;;;;;;1.90;1.70;;;21.00;70.80;21.20;100097.00;;;;5002962;27;93982;-68
2023/10/12 00:13:13;;;;;;;2.55;2.05;;;21.00;70.90;21.20;100103.00;;;;5001673;27;92251;-66
2023/10/12 00:15:45;;;;;;;5.13;1.48;;;21.00;70.90;21.20;100107.00;;;;4990679;27;93483;-66
2023/10/12 00:18:14;;;;;;;0.95;0.82;;;21.00;71.00;21.20;100097.00;;;;5001578;27;94229;-67
2023/10/12 00:20:43;;;;;;;4.57;1.45;;;21.00;71.00;21.20;100106.00;;;;5004032;27;95035;-67
2023/10/12 00:23:09;;;;;;;5.40;2.70;;;21.00;71.00;21.20;100106.00;;;;5000960;27;93126;-67
2023/10/12 00:25:58;;;;;;;3.13;2.08;;;21.00;71.10;21.20;100102.00;;;;5001296;27;92873;-67
2023/10/12 00:28:37;;;;;;;6.65;2.08;;;21.00;71.10;21.20;100093.00;;;;4984313;27;95027;-68
2023/10/12 00:31:05;;;;;;;2.70;1.58;;;21.00;71.30;21.20;100090.00;;;;5000752;27;93166;-66
2023/10/12 00:33:31;;;;;;;6.03;1.42;;;21.00;71.40;21.10;100083.00;;;;5001038;27;94307;-65
2023/10/12 00:36:01;;;;;;;3.58;1.45;;;21.00;71.40;21.10;100074.00;;;;5002086;27;94326;-65
2023/10/12 00:38:30;;;;;;;5.00;1.85;;;21.00;71.60;21.10;100090.00;;;;5001034;27;96061;-65
2023/10/12 00:41:03;;;;;;;1.88;1.65;;;21.00;71.80;21.10;100088.00;;;;5002301;27;93040;-65
2023/10/12 00:43:36;;;;;;;3.05;2.00;;;20.90;71.80;21.00;100082.00;;;;5003106;27;93102;-65
2023/10/12 00:46:58;;;;;;;3.03;1.10;;;20.90;71.90;21.00;100086.00;;;;5001036;27;95327;-65
2023/10/12 00:49:17;;;;;;;3.50;1.70;;;20.90;72.00;20.90;100080.00;;;;4997185;27;93500;-65
2023/10/12 00:51:50;;;;;;;6.63;1.83;;;20.80;72.10;20.90;100067.00;;;;4984539;27;93588;-67
2023/10/12 00:55:21;;;;;;;3.20;2.08;;;20.80;72.20;20.90;100069.00;;;;5002255;27;92951;-66
2023/10/12 00:57:11;;;;;;;3.28;2.30;;;20.80;72.30;20.90;100066.00;;;;4995045;27;94782;-66
2023/10/12 00:59:40;;;;;;;3.13;1.45;;;20.80;72.50;20.90;100075.00;;;;5000390;27;93059;-66
2023/10/12 01:02:15;;;;;;;5.82;1.70;;;20.80;72.50;20.90;100070.00;;;;4986029;27;94393;-67
2023/10/12 01:04:41;;;;;;;5.82;1.17;;;20.80;72.50;21.00;100058.00;;;;4985497;27;94148;-66
2023/10/12 01:07:10;;;;;;;4.18;1.65;;;20.80;72.50;21.00;100051.00;;;;5004079;27;108213;-65
2023/10/12 01:09:39;;;;;;;8.15;2.13;;;20.80;72.60;21.00;100043.00;;;;5004853;27;94247;-66
2023/10/12 01:12:12;;;;;;;7.10;1.73;;;20.90;72.60;21.00;100047.00;;;;5003145;27;94067;-67
2023/10/12 01:14:43;;;;;;;6.75;2.13;;;20.80;72.30;21.10;100060.00;;;;5005802;27;94655;-66
2023/10/12 01:17:35;;;;;;;2.78;1.85;;;20.90;72.40;21.10;100062.00;;;;5004558;27;95314;-66
2023/10/12 01:20:11;;;;;;;2.67;1.65;;;20.90;72.30;21.10;100046.00;;;;5007617;27;94490;-67
2023/10/12 01:22:39;;;;;;;3.38;1.63;;;20.90;72.30;21.10;100053.00;;;;5007037;27;93085;-65
2023/10/12 01:25:19;;;;;;;2.17;1.30;;;20.90;72.20;21.10;100050.00;;;;5005704;27;92875;-66
2023/10/12 01:27:46;;;;;;;2.22;1.52;;;20.90;72.30;21.10;100045.00;;;;5003066;27;93291;-65
2023/10/12 01:30:22;;;;;;;1.95;1.27;;;20.90;72.20;21.10;100031.00;;;;5004504;27;93368;-65
2023/10/12 01:32:58;;;;;;;6.20;1.92;;;20.90;72.20;21.10;100018.00;;;;5012842;27;92942;-66
2023/10/12 01:35:32;;;;;;;3.47;1.80;;;20.90;72.30;21.10;100036.00;;;;5007900;27;93073;-66
2023/10/12 01:38:01;;;;;;;2.83;1.63;;;20.90;72.40;21.10;100044.00;;;;5010661;27;93978;-66
2023/10/12 01:40:53;;;;;;;3.40;2.05;;;20.90;72.50;21.00;100038.00;;;;5012610;27;94546;-66
2023/10/12 01:43:17;;;;;;;2.58;1.23;;;20.90;72.60;21.00;100023.00;;;;5004392;27;93543;-66
2023/10/12 01:45:53;;;;;;;2.03;1.67;;;20.90;72.60;21.00;100031.00;;;;5007007;27;92978;-65
2023/10/12 01:48:22;;;;;;;2.35;1.48;;;20.90;72.70;21.00;100025.00;;;;5000979;27;95161;-66
2023/10/12 01:50:49;;;;;;;1.85;1.40;;;20.80;72.60;21.00;100037.00;;;;5004419;27;95401;-67
2023/10/12 01:55:51;;;;;;;6.32;1.48;;;20.80;72.90;20.90;100030.00;;;;5003752;27;93800;-67
2023/10/12 01:58:17;;;;;;;5.82;1.80;;;20.80;73.00;20.90;100032.00;;;;5006665;27;93054;-66
2023/10/12 02:00:51;;;;;;;5.22;1.88;;;20.70;73.00;20.90;100026.00;;;;5001718;27;94028;-67
2023/10/12 02:03:26;;;;;;;2.15;1.05;;;20.70;73.20;20.80;100025.00;;;;5005325;27;93880;-66
2023/10/12 02:06:02;;;;;;;4.57;1.77;;;20.70;73.40;20.80;100024.00;;;;5006680;27;93060;-66
2023/10/12 02:08:32;;;;;;;5.13;2.38;;;20.60;73.40;20.80;100024.00;;;;5003912;27;93000;-66
2023/10/12 02:11:06;;;;;;;2.75;1.40;;;20.60;73.60;20.80;100038.00;;;;5002072;27;93331;-65
2023/10/12 02:13:35;;;;;;;2.72;1.58;;;20.60;73.80;20.80;100036.00;;;;5003668;27;93467;-67
2023/10/12 02:16:02;;;;;;;2.83;1.70;;;20.60;73.90;20.80;100031.00;;;;5001967;27;92889;-67
2023/10/12 02:18:30;;;;;;;1.67;1.20;;;20.60;74.00;20.80;100039.00;;;;5002317;27;93159;-67
2023/10/12 02:23:54;;;;;;;3.60;1.58;;;20.60;74.20;20.70;100042.00;;;;5002514;27;92703;-66
2023/10/12 02:26:34;;;;;;;6.15;1.63;;;20.60;74.30;20.70;100049.00;;;;4999303;27;93093;-66
2023/10/12 02:31:58;;;;;;;4.65;1.88;;;20.60;74.50;20.70;100042.00;;;;5003032;27;92875;-65
2023/10/12 02:34:29;;;;;;;2.78;1.67;;;20.60;74.50;20.70;100045.00;;;;5001683;27;93508;-66
2023/10/12 02:39:31;;;;;;;3.05;1.88;;;20.60;74.70;20.70;100042.00;;;;5002646;27;92994;-66
2023/10/12 02:47:23;;;;;;;2.13;1.42;;;20.60;74.90;20.80;100049.00;;;;4999557;27;92354;-67
2023/10/12 02:49:49;;;;;;;8.88;1.92;;;20.60;75.00;20.80;100057.00;;;;5005039;27;93222;-66
2023/10/12 02:52:16;;;;;;;3.67;2.08;;;20.60;74.90;20.80;100061.00;;;;5002135;27;116157;-65
2023/10/12 02:54:54;;;;;;;6.30;1.77;;;20.60;75.10;20.80;100063.00;;;;5004567;27;94052;-67
2023/10/12 02:57:25;;;;;;;3.13;1.20;;;20.60;75.90;20.80;100066.00;;;;5005016;27;93435;-66
2023/10/12 03:00:07;;;;;;;3.67;2.03;;;20.60;75.30;20.80;100062.00;;;;5002355;27;93242;-65
2023/10/12 03:02:33;;;;;;;5.13;1.50;;;20.60;75.40;20.80;100068.00;;;;4999865;27;93803;-67
2023/10/12 03:05:09;;;;;;;3.08;1.63;;;20.60;75.40;20.70;100065.00;;;;5000710;27;122252;-67
2023/10/12 03:07:38;;;;;;;3.25;1.60;;;20.60;75.70;20.70;100076.00;;;;5003391;27;93316;-67
2023/10/12 03:10:07;;;;;;;2.53;1.50;;;20.60;75.90;20.70;100065.00;;;;4971273;27;93910;-67
2023/10/12 03:12:35;;;;;;;3.72;1.65;;;20.60;76.10;20.70;100075.00;;;;5003437;27;93370;-66
2023/10/12 03:15:12;;;;;;;4.22;1.98;;;20.60;76.10;20.70;100070.00;;;;5006484;27;93249;-67
2023/10/12 03:17:42;;;;;;;3.15;1.88;;;20.60;76.20;20.70;100075.00;;;;5006504;27;92804;-67
2023/10/12 03:20:22;;;;;;;6.55;1.73;;;20.60;76.20;20.70;100074.00;;;;5006583;27;94137;-67
2023/10/12 03:22:58;;;;;;;2.15;1.83;;;20.50;76.30;20.70;100065.00;;;;5004661;27;93757;-66
2023/10/12 03:25:43;;;;;;;2.92;1.17;;;20.50;76.50;20.60;100073.00;;;;5005138;27;93075;-65
2023/10/12 03:28:28;;;;;;;3.45;1.92;;;20.50;76.60;20.60;100060.00;;;;5004355;27;93422;-66
2023/10/12 03:30:57;;;;;;;3.55;1.42;;;20.50;76.80;20.60;100062.00;;;;5005420;27;92868;-66
2023/10/12 03:33:32;;;;;;;2.13;1.02;;;20.40;76.90;20.60;100070.00;;;;5000666;27;94004;-66
2023/10/12 03:36:13;;;;;;;4.30;1.52;;;20.40;77.10;20.60;100067.00;;;;5009536;27;92817;-66
2023/10/12 03:38:40;;;;;;;3.50;1.98;;;20.40;77.30;20.50;100065.00;;;;5007837;27;92015;-65
2023/10/12 03:44:01;;;;;;;3.58;2.03;;;20.40;77.60;20.50;100068.00;;;;5005174;27;93130;-66
2023/10/12 03:46:27;;;;;;;1.98;1.33;;;20.30;77.80;20.50;100068.00;;;;5003139;27;94504;-66
2023/10/12 03:51:38;;;;;;;1.25;1.00;;;20.30;78.10;20.40;100057.00;;;;5001643;27;93697;-66
2023/10/12 03:54:11;;;;;;;1.83;1.45;;;20.30;78.20;20.40;100046.00;;;;5000836;27;93606;-65
2023/10/12 03:56:39;;;;;;;2.42;1.52;;;20.30;78.50;20.40;100045.00;;;;5005800;27;94645;-66
2023/10/12 03:59:08;;;;;;;9.38;1.60;;;20.20;78.50;20.30;100037.00;;;;5006026;27;93851;-67
2023/10/12 04:01:40;;;;;;;2.47;1.45;;;20.20;78.80;20.30;100060.00;;;;5003079;27;92869;-67
2023/10/12 04:09:43;;;;;;;3.42;1.83;;;20.10;79.70;20.20;100048.00;;;;4939649;27;93139;-65
2023/10/12 04:14:54;;;;;;;2.00;1.38;;;20.00;80.00;20.10;100054.00;;;;5003338;27;93205;-66
2023/10/12 04:17:39;;;;;;;4.55;1.58;;;20.00;80.10;20.10;100068.00;;;;5004739;27;92763;-66
2023/10/12 04:33:17;;;;;;;2.03;1.33;;;19.90;80.90;20.00;100068.00;;;;5003505;27;92992;-65
2023/10/12 04:43:34;;;;;;;3.33;1.45;;;19.80;81.50;19.90;100060.00;;;;5002691;27;92959;-66
2023/10/12 04:46:26;;;;;;;3.15;2.22;;;19.70;81.70;19.90;100063.00;;;;5002706;27;93954;-66
2023/10/12 04:52:04;;;;;;;1.40;1.17;;;19.70;82.00;19.80;100073.00;;;;4964046;27;92900;-66
2023/10/12 04:54:29;;;;;;;5.32;2.08;;;19.70;82.20;19.80;100070.00;;;;5002156;27;93247;-65
2023/10/12 04:59:42;;;;;;;2.40;1.30;;;19.70;82.40;19.80;100078.00;;;;5001351;27;92803;-65
2023/10/12 05:09:37;;;;;;;2.05;1.27;;;19.60;82.90;19.80;100100.00;;;;4998804;27;93280;-66
2023/10/12 05:12:03;;;;;;;3.17;2.00;;;19.60;82.90;19.80;100084.00;;;;4998147;27;92932;-65
2023/10/12 05:14:30;;;;;;;2.15;1.35;;;19.60;83.00;19.70;100092.00;;;;4996709;27;103622;-66
2023/10/12 05:16:56;;;;;;;2.65;1.20;;;19.60;83.10;19.70;100085.00;;;;4999677;27;93368;-65
2023/10/12 05:19:22;;;;;;;2.47;1.75;;;19.60;83.40;19.70;100095.00;;;;4994835;27;92965;-66
2023/10/12 05:21:47;;;;;;;4.55;1.40;;;19.50;83.30;19.60;100100.00;;;;4995398;27;102461;-65
2023/10/12 05:24:13;;;;;;;2.03;1.25;;;19.50;83.60;19.60;100103.00;;;;4997909;27;109512;-66
2023/10/12 05:26:39;;;;;;;3.40;1.85;;;19.50;83.90;19.60;100100.00;;;;4994666;27;124257;-66
2023/10/12 05:32:06;;;;;;;2.80;1.85;;;19.50;84.20;19.60;100111.00;;;;4999093;27;93277;-65
2023/10/12 05:39:47;;;;;;;2.05;1.85;;;19.40;84.60;19.50;100110.00;;;;5000716;27;93004;-65
2023/10/12 05:42:19;;;;;;;2.33;1.92;;;19.40;84.80;19.50;100132.00;;;;4999176;27;92866;-65
2023/10/12 05:44:48;;;;;;;3.10;1.33;;;19.40;85.00;19.50;100139.00;;;;5002463;27;92942;-66
2023/10/12 05:47:14;;;;;;;4.57;1.50;;;19.40;85.10;19.50;100144.00;;;;5005189;27;92300;-65
2023/10/12 05:49:41;;;;;;;3.47;1.85;;;19.30;85.30;19.50;100161.00;;;;5003820;27;93217;-66
2023/10/12 05:52:08;;;;;;;8.48;2.15;;;19.60;85.60;19.50;100165.00;;;;5005413;27;95058;-65
2023/10/12 05:54:38;;;;;;;2.42;1.30;;;19.30;85.60;19.50;100172.00;;;;5004692;27;93878;-67
2023/10/12 05:57:17;;;;;;;5.25;2.47;;;19.30;85.80;19.50;100172.00;;;;5005447;27;93263;-66
2023/10/12 05:59:43;;;;;;;6.57;2.20;;;19.30;86.00;19.50;100178.00;;;;4987231;27;93806;-65
2023/10/12 06:02:10;;;;;;;4.82;1.95;;;19.30;86.20;19.50;100197.00;;;;5006397;27;93015;-65
2023/10/12 06:04:36;;;;;;;7.95;2.55;;;19.30;86.30;19.50;100189.00;;;;5003198;27;92923;-65
2023/10/12 06:07:03;;;;;;;9.52;1.83;;;19.30;86.40;19.50;100199.00;;;;5006256;27;95366;-65
2023/10/12 06:09:37;;;;;;;2.97;1.70;;;19.30;86.70;19.50;100206.00;;;;5004662;27;93405;-66
2023/10/12 06:12:07;;;;;;;2.83;1.92;;;19.30;86.80;19.50;100213.00;;;;5006545;27;93194;-67
2023/10/12 06:14:35;;;;;;;12.55;1.73;;;19.30;87.10;19.50;100212.00;;;;5004667;27;92996;-65
2023/10/12 06:17:27;;;;;;;1.27;1.17;;;19.30;87.10;19.50;100217.00;;;;5003474;27;93014;-64
2023/10/12 06:19:54;;;;;;;3.90;1.83;;;19.30;87.20;19.50;100231.00;;;;5001998;27;93861;-65
2023/10/12 06:22:20;;;;;;;2.53;1.65;;;19.30;87.70;19.40;100243.00;;;;5001849;27;93020;-66
2023/10/12 06:24:51;;;;;;;3.47;2.15;;;19.30;89.70;19.10;100247.00;;;;5004920;27;92938;-65
2023/10/12 06:29:54;;;;;;;8.60;1.88;;;18.80;91.50;18.30;100278.00;;;;4987623;27;116625;-66
2023/10/12 06:32:32;;;;;;;2.97;1.98;;;18.50;92.60;18.00;100272.00;;;;5007601;27;93142;-67
2023/10/12 06:35:15;;;;;;;3.75;2.70;;;18.20;93.60;17.70;100277.00;;;;5009954;27;93007;-69
2023/10/12 06:37:49;;;;;;;4.22;1.52;;;17.80;94.40;17.50;100276.00;;;;4981674;27;94517;-68
2023/10/12 06:45:47;;;;;;;3.67;1.70;;;17.20;97.20;17.00;100297.00;;;;5008419;27;94781;-68
2023/10/12 06:51:02;;;;;;;3.58;1.85;;;16.90;98.60;16.70;100313.00;;;;4991959;27;92749;-65
2023/10/12 06:53:34;;;;;;;3.45;1.70;;;16.80;99.40;16.60;100307.00;;;;5006730;27;92774;-66
2023/10/12 06:56:21;;;;;;;2.00;1.73;;;16.60;99.90;16.50;100303.00;;;;5007187;27;94480;-66
2023/10/12 07:01:58;;;;;;;6.38;2.03;;;16.40;99.90;16.30;100306.00;;;;4939129;28;93108;-66
2023/10/12 07:04:27;;;;;;;5.45;2.00;;;16.30;99.90;16.30;100308.00;;;;4998417;27;92183;-65
2023/10/12 07:06:56;;;;;;;3.75;2.33;;;16.30;99.90;16.30;100310.00;;;;5005922;27;93149;-66
2023/10/12 07:09:39;;;;;;;7.10;1.77;;;16.30;99.90;16.30;100315.00;;;;5005611;27;94064;-66
2023/10/12 07:12:08;;;;;;;5.55;2.30;;;16.20;99.90;16.30;100305.00;;;;5005340;27;93813;-65
2023/10/12 07:14:38;;;;;;;2.38;1.58;;;16.20;99.90;16.20;100314.00;;;;5007712;27;96179;-66
2023/10/12 07:17:07;;;;;;;5.97;2.78;;;16.20;99.90;16.20;100322.00;;;;5004607;27;93520;-66
2023/10/12 07:19:41;;;;;;;3.55;2.75;;;16.10;99.90;16.20;100323.00;;;;5010885;27;93130;-65
2023/10/12 07:22:15;;;;;;;5.05;2.95;;;16.10;99.90;16.10;100318.00;;;;5005760;27;92879;-64
2023/10/12 07:24:42;;;;;;;6.18;2.78;;;16.10;99.90;16.10;100331.00;;;;5005846;27;92907;-66
2023/10/12 07:27:11;;;;;;;3.33;2.00;;;16.10;99.90;16.10;100314.00;;;;5002883;27;92939;-65
2023/10/12 07:29:44;;;;;;;3.15;2.42;;;16.10;99.90;16.10;100347.00;;;;5005235;27;93036;-65
2023/10/12 07:35:18;;;;;;;5.65;2.67;;;16.10;99.90;16.10;100364.00;;;;4979879;27;93299;-66
2023/10/12 07:37:44;;;;;;;3.38;2.35;;;16.10;99.90;16.10;100361.00;;;;5005053;27;95817;-64
2023/10/12 07:40:17;;;;;;;6.95;3.33;;;16.00;99.90;16.10;100361.00;;;;5005591;27;93634;-64
2023/10/12 07:42:47;;;;;;;4.82;2.47;;;16.10;99.90;16.10;100366.00;;;;5008527;27;93355;-65
2023/10/12 07:45:19;;;;;;;2.88;2.33;;;16.10;99.90;16.10;100373.00;;;;4989166;27;93099;-65
2023/10/12 07:47:46;;;;;;;8.68;3.13;;;16.10;99.90;16.20;100371.00;;;;5004900;27;94254;-64
2023/10/12 07:50:13;;;;;;;5.47;3.03;;;16.10;99.90;16.20;100366.00;;;;5006195;27;93939;-64
2023/10/12 07:52:48;;;;;;;3.47;2.70;;;16.10;99.90;16.30;100365.00;;;;5006249;27;94396;-64
2023/10/12 07:55:17;;;;;;;4.50;2.25;;;16.20;99.90;16.30;100384.00;;;;5007062;27;92162;-64
2023/10/12 07:57:45;;;;;;;4.45;2.90;;;16.20;99.90;16.30;100374.00;;;;4999242;27;94780;-65
2023/10/12 08:21:24;;;;;;;4.65;3.22;;;16.30;99.90;16.40;100382.00;;;;5005809;27;92493;-66
2023/10/12 08:24:09;;;;;;;2.45;1.92;;;16.30;99.90;16.40;100368.00;;;;5005296;27;92943;-64
2023/10/12 08:32:27;;;;;;;4.15;3.10;;;16.30;99.90;16.40;100375.00;;;;5001417;27;95430;-64
2023/10/12 08:34:42;;;;;;;5.18;2.83;;;16.30;99.90;16.40;100377.00;;;;5003838;27;92948;-64
2023/10/12 08:39:51;;;;;;;5.10;2.65;;;16.40;99.90;16.50;100378.00;;;;5005948;27;92847;-64
2023/10/12 08:42:39;;;;;;;4.35;2.67;;;16.40;99.90;16.50;100386.00;;;;5005127;27;94084;-65
2023/10/12 08:45:15;;;;;;;5.50;3.33;;;16.40;99.90;16.50;100388.00;;;;5003446;27;92922;-64
2023/10/12 08:47:49;;;;;;;4.55;2.85;;;16.40;99.90;16.50;100395.00;;;;5006707;27;92265;-64
2023/10/12 08:52:52;;;;;;;3.15;2.63;;;16.40;99.90;16.60;100401.00;;;;5005728;27;94385;-64
2023/10/12 08:55:25;;;;;;;4.55;2.67;;;16.50;99.90;16.60;100403.00;;;;4991309;27;93810;-64
2023/10/12 08:58:20;;;;;;;3.85;2.90;;;16.50;99.90;16.60;100400.00;;;;5004315;27;92867;-64
2023/10/12 09:01:07;;;;;;;7.80;2.80;;;16.50;99.90;16.60;100404.00;;;;5003981;27;92917;-63
2023/10/12 09:03:44;;;;;;;3.88;2.42;;;16.50;99.90;16.60;100398.00;;;;4998877;27;93926;-64
2023/10/12 09:06:29;;;;;;;5.63;3.20;;;16.50;99.90;16.60;100395.00;;;;4988321;27;93128;-63
2023/10/12 09:08:56;;;;;;;4.78;3.28;;;16.50;99.90;16.70;100401.00;;;;5004242;27;92978;-63
2023/10/12 09:11:34;;;;;;;3.58;3.08;;;16.50;99.90;16.70;100391.00;;;;5005121;27;94332;-64
2023/10/12 09:14:11;;;;;;;3.58;2.88;;;16.60;99.90;16.70;100397.00;;;;5003261;27;93570;-64
2023/10/12 09:16:37;;;;;;;5.97;3.08;;;16.60;99.90;16.70;100401.00;;;;5005088;27;93111;-64
2023/10/12 09:19:07;;;;;;;6.57;3.45;;;16.60;99.90;16.70;100409.00;;;;4998141;27;93209;-64
2023/10/12 09:21:57;;;;;;;5.15;2.75;;;16.60;99.90;16.70;100424.00;;;;5001006;27;93739;-63
2023/10/12 09:24:28;;;;;;;3.78;3.10;;;16.60;99.90;16.70;100411.00;;;;5001419;27;93822;-64
2023/10/12 09:27:02;;;;;;;7.15;3.28;;;16.60;99.90;16.70;100416.00;;;;5005201;27;95033;-63
2023/10/12 09:29:28;;;;;;;4.25;2.80;;;16.60;99.90;16.70;100421.00;;;;5008910;27;92869;-64
2023/10/12 09:32:23;;;;;;;5.22;3.25;;;16.60;99.90;16.70;100423.00;;;;4996555;27;92923;-63
2023/10/12 09:37:43;;;;;;;4.22;2.30;;;16.60;99.90;16.70;100420.00;;;;5007349;27;93146;-64
2023/10/12 09:40:54;;;;;;;3.55;2.75;;;16.60;99.90;16.70;100422.00;;;;4992423;27;92674;-64
2023/10/12 09:43:14;;;;;;;4.70;3.65;;;16.60;99.90;16.70;100413.00;;;;5002810;27;92813;-65
2023/10/12 09:45:47;;;;;;;4.32;2.72;;;16.60;99.90;16.70;100413.00;;;;5007277;27;93747;-64
2023/10/12 09:48:27;;;;;;;3.00;2.45;;;16.60;99.90;16.70;100417.00;;;;5006850;27;94114;-64
2023/10/12 09:50:56;;;;;;;5.85;2.85;;;16.60;99.90;16.70;100416.00;;;;5010828;27;93336;-64
2023/10/12 09:53:38;;;;;;;3.25;2.97;;;16.60;99.90;16.60;100414.00;;;;5010167;27;102824;-63
2023/10/12 09:56:11;;;;;;;5.25;3.35;;;16.60;99.90;16.70;100415.00;;;;5007998;27;93726;-64
2023/10/12 10:07:17;;;;;;;5.35;2.63;;;16.60;99.90;16.60;100437.00;;;;5005065;27;92325;-63
2023/10/12 10:09:47;;;;;;;5.28;2.45;;;16.60;99.90;16.60;100443.00;;;;5010160;27;92773;-66
2023/10/12 10:12:17;;;;;;;8.73;3.17;;;16.50;99.90;16.50;100433.00;;;;5005495;27;93625;-64
2023/10/12 10:14:46;;;;;;;3.65;2.55;;;16.50;99.90;16.50;100443.00;;;;5007153;27;94164;-65
2023/10/12 10:17:15;;;;;;;3.78;3.03;;;16.50;99.90;16.50;100432.00;;;;5005047;27;94245;-65
2023/10/12 10:19:43;;;;;;;5.03;2.67;;;16.50;99.90;16.50;100431.00;;;;5005044;27;93250;-66
2023/10/12 10:22:14;;;;;;;5.97;2.75;;;16.40;99.90;16.60;100424.00;;;;5007245;27;92780;-65
2023/10/12 10:24:58;;;;;;;3.80;2.88;;;16.50;99.90;16.60;100423.00;;;;5007867;27;93244;-64
2023/10/12 10:27:34;;;;;;;4.10;3.10;;;16.50;99.90;16.60;100433.00;;;;4984648;27;94629;-65
2023/10/12 10:30:27;;;;;;;4.65;2.60;;;16.50;99.90;16.60;100428.00;;;;5011093;27;92951;-63
2023/10/12 10:33:28;;;;;;;5.00;3.47;;;16.50;99.90;16.60;100445.00;;;;5008188;27;92127;-66
2023/10/12 10:36:23;;;;;;;3.75;3.20;;;16.60;99.90;16.60;100439.00;;;;4968814;27;92764;-65
2023/10/12 10:44:21;;;;;;;2.47;2.15;;;16.50;99.90;16.60;100429.00;;;;5006326;27;93810;-65
2023/10/12 10:46:54;;;;;;;6.45;2.55;;;16.50;99.90;16.60;100432.00;;;;5008112;27;93416;-66
2023/10/12 10:49:21;;;;;;;4.30;2.30;;;16.50;99.90;16.60;100424.00;;;;5007339;27;94345;-66
2023/10/12 10:52:13;;;;;;;2.78;2.50;;;16.50;99.90;16.70;100422.00;;;;5005999;27;94341;-66
2023/10/12 10:57:40;;;;;;;6.55;4.20;;;16.70;99.90;16.70;100408.00;;;;4994862;27;93011;-66
2023/10/12 11:00:15;;;;;;;4.88;3.22;;;16.60;99.90;16.80;100407.00;;;;5002700;27;93365;-66
2023/10/12 11:02:41;;;;;;;4.63;2.67;;;16.70;99.90;16.80;100407.00;;;;5008185;27;92748;-65
2023/10/12 11:05:10;;;;;;;5.28;3.13;;;16.70;99.90;16.80;100400.00;;;;5007091;27;97602;-65
2023/10/12 11:07:38;;;;;;;4.25;2.28;;;16.70;99.90;16.80;100399.00;;;;5007168;27;94020;-65
2023/10/12 11:10:06;;;;;;;2.33;2.15;;;16.70;99.90;16.90;100410.00;;;;5004306;27;94181;-65
2023/10/12 11:12:36;;;;;;;4.18;3.33;;;16.80;99.90;16.90;100414.00;;;;5007694;27;94773;-65
2023/10/12 11:15:11;;;;;;;4.88;2.80;;;16.80;99.90;16.90;100401.00;;;;5007587;27;93179;-66
2023/10/12 11:17:40;;;;;;;3.83;2.17;;;16.80;99.90;16.90;100414.00;;;;5004805;27;93207;-66
2023/10/12 11:20:27;;;;;;;5.43;2.90;;;16.80;99.90;16.90;100414.00;;;;5003211;27;93400;-66
2023/10/12 11:22:57;;;;;;;4.13;2.83;;;16.80;99.90;16.80;100418.00;;;;5003455;27;93231;-66
2023/10/12 11:25:26;;;;;;;3.33;2.35;;;16.80;99.90;16.80;100421.00;;;;4996057;27;92237;-65
2023/10/12 11:27:53;;;;;;;2.72;2.22;;;16.70;99.90;16.70;100425.00;;;;4972655;28;95878;-65
2023/10/12 11:30:30;;;;;;;2.80;2.05;;;16.70;99.90;16.70;100424.00;;;;4989047;28;93313;-65
2023/10/12 11:32:58;;;;;;;7.30;2.60;;;16.60;99.90;16.60;100417.00;;;;4986907;28;94065;-65
2023/10/12 11:35:40;;;;;;;3.78;2.53;;;16.60;99.90;16.60;100413.00;;;;4982353;28;92872;-64
2023/10/12 11:38:19;;;;;;;4.20;3.17;;;16.60;99.90;16.60;100411.00;;;;4984664;28;93089;-64
2023/10/12 11:40:55;;;;;;;5.15;3.03;;;16.50;99.90;16.60;100418.00;;;;4983137;27;95093;-64
2023/10/12 11:43:43;;;;;;;3.80;2.42;;;16.60;99.90;16.60;100406.00;;;;4983591;27;93473;-63
2023/10/12 11:46:09;;;;;;;8.50;3.80;;;16.60;99.90;16.70;100415.00;;;;4968640;28;110870;-64
2023/10/12 11:48:35;;;;;;;3.08;2.83;;;16.60;99.90;16.70;100414.00;;;;4982260;28;108279;-63
2023/10/12 11:51:13;;;;;;;5.45;3.40;;;16.60;99.90;16.70;100422.00;;;;4982450;28;123298;-64
2023/10/12 11:53:40;;;;;;;2.85;1.77;;;16.60;99.90;16.70;100421.00;;;;4985576;28;93428;-64
2023/10/12 11:56:17;;;;;;;11.65;2.88;;;16.60;99.90;16.70;100428.00;;;;4983075;28;92824;-63
2023/10/12 11:58:50;;;;;;;4.88;2.63;;;16.70;99.90;16.70;100421.00;;;;4985230;28;93915;-64
2023/10/12 12:01:18;;;;;;;3.38;3.08;;;16.60;99.90;16.70;100421.00;;;;4985292;27;94090;-65
2023/10/12 12:03:45;;;;;;;4.30;2.72;;;16.60;99.90;16.70;100419.00;;;;4964370;28;93802;-64
2023/10/12 12:06:18;;;;;;;4.78;2.42;;;16.60;99.90;16.70;100413.00;;;;4979077;27;92933;-65
2023/10/12 12:08:48;;;;;;;3.78;2.08;;;16.60;99.90;16.70;100422.00;;;;4980758;28;92979;-66
2023/10/12 12:11:26;;;;;;;3.03;2.30;;;16.60;99.90;16.70;100427.00;;;;4982910;28;93390;-64
2023/10/12 12:13:54;;;;;;;3.45;2.28;;;16.60;99.90;16.60;100432.00;;;;4981460;27;94573;-65
2023/10/12 12:16:20;;;;;;;7.82;1.50;;;16.60;99.90;16.60;100430.00;;;;4981716;28;109805;-65
2023/10/12 12:18:52;;;;;;;2.90;1.65;;;16.60;99.90;16.60;100421.00;;;;4982693;28;109031;-64
2023/10/12 12:21:29;;;;;;;4.03;2.63;;;16.60;99.90;16.70;100436.00;;;;4982112;28;93400;-64
2023/10/12 12:26:45;;;;;;;2.60;1.80;;;16.60;99.90;16.70;100433.00;;;;4997139;27;92827;-65
2023/10/12 12:29:15;;;;;;;3.58;1.58;;;16.60;99.90;16.70;100434.00;;;;5004113;27;93113;-65
2023/10/12 12:31:41;;;;;;;2.30;2.10;;;16.60;99.90;16.70;100436.00;;;;5007632;27;93015;-64
2023/10/12 12:34:18;;;;;;;3.63;2.00;;;16.60;99.90;16.80;100426.00;;;;5004374;27;121649;-65
2023/10/12 12:36:43;;;;;;;3.05;1.83;;;16.70;99.90;16.80;100430.00;;;;5007279;27;93067;-64
2023/10/12 12:39:10;;;;;;;4.88;1.85;;;16.70;99.90;16.80;100427.00;;;;5004984;27;108985;-64
2023/10/12 12:41:36;;;;;;;4.68;2.20;;;16.70;99.90;16.80;100425.00;;;;5006720;27;92819;-64
2023/10/12 12:44:02;;;;;;;8.00;2.03;;;16.80;99.90;16.90;100430.00;;;;5006216;27;93058;-64
2023/10/12 12:46:31;;;;;;;1.65;1.15;;;16.80;99.90;16.90;100432.00;;;;5005151;27;93089;-63
2023/10/12 12:48:56;;;;;;;3.85;1.77;;;16.80;99.90;16.90;100435.00;;;;5001719;27;93991;-63
2023/10/12 12:51:22;;;;;;;1.52;1.42;;;16.90;99.90;17.00;100436.00;;;;5002326;27;120930;-64
2023/10/12 12:53:51;;;;;;;2.28;1.73;;;16.90;99.90;17.00;100433.00;;;;5006088;27;93006;-64
2023/10/12 12:56:19;;;;;;;2.47;1.80;;;16.90;99.90;17.00;100444.00;;;;5002017;27;93480;-64
2023/10/12 12:58:49;;;;;;;3.92;1.42;;;17.00;99.90;17.10;100434.00;;;;5003125;27;93019;-64
2023/10/12 13:01:16;;;;;;;2.88;1.67;;;17.00;99.90;17.10;100429.00;;;;5002476;27;93845;-64
2023/10/12 13:03:45;;;;;;;3.10;1.95;;;17.00;99.90;17.10;100436.00;;;;5003049;27;94220;-66
2023/10/12 13:06:12;;;;;;;4.60;1.80;;;17.10;99.90;17.20;100442.00;;;;5002350;27;93015;-66
2023/10/12 13:08:38;;;;;;;1.92;1.83;;;17.10;99.90;17.20;100449.00;;;;5005894;27;92985;-66
2023/10/12 13:11:04;;;;;;;3.08;2.33;;;17.10;99.90;17.20;100446.00;;;;5004767;27;93661;-65
2023/10/12 13:13:35;;;;;;;1.95;1.42;;;17.10;99.90;17.20;100446.00;;;;5002752;27;94021;-65
2023/10/12 13:16:03;;;;;;;1.30;1.20;;;17.10;99.90;17.20;100439.00;;;;5003888;27;92703;-65
2023/10/12 13:18:32;;;;;;;3.92;2.28;;;17.10;99.90;17.20;100454.00;;;;5003341;27;92756;-65
2023/10/12 13:20:59;;;;;;;2.55;1.48;;;17.10;99.90;17.20;100447.00;;;;5003136;27;93580;-67
2023/10/12 13:23:25;;;;;;;1.40;1.27;;;17.20;99.90;17.20;100441.00;;;;5004520;27;93756;-67
2023/10/12 13:25:51;;;;;;;2.67;1.88;;;17.20;99.90;17.30;100436.00;;;;5003489;27;109714;-66
2023/10/12 13:28:17;;;;;;;3.70;1.90;;;17.20;99.90;17.30;100440.00;;;;5004883;27;92770;-67
2023/10/12 13:30:43;;;;;;;4.20;1.77;;;17.20;99.90;17.30;100443.00;;;;5004815;27;92957;-67
2023/10/12 13:33:13;;;;;;;1.60;1.10;;;17.30;99.90;17.30;100444.00;;;;5000072;27;93269;-66